createdAt,value
2022-12-27T00:00:40.722Z,1.1
2022-12-27T00:04:40.550Z,0.4
2022-12-27T00:08:40.478Z,0.9
2022-12-27T00:12:40.529Z,0.6
2022-12-27T00:16:41.143Z,1.1
2022-12-27T00:20:40.681Z,0.77
2022-12-27T00:24:40.536Z,1.2
2022-12-27T00:28:40.522Z,1.3
2022-12-27T00:32:40.592Z,1.07
2022-12-27T00:36:40.531Z,1.03
2022-12-27T00:40:40.506Z,1.2
2022-12-27T00:44:40.801Z,1.07
2022-12-27T00:48:40.682Z,1.9
2022-12-27T00:52:40.607Z,1.27
2022-12-27T00:56:41.253Z,1.53
2022-12-27T01:00:40.928Z,1.17
2022-12-27T01:04:40.613Z,0.8
2022-12-27T01:08:40.456Z,1.73
2022-12-27T01:12:40.304Z,0.9
2022-12-27T01:16:40.402Z,0.9
2022-12-27T01:20:39.319Z,1.03
2022-12-27T01:24:40.826Z,0.7
2022-12-27T01:28:40.466Z,0.9
2022-12-27T01:32:40.411Z,1.2
2022-12-27T01:36:40.563Z,0.87
2022-12-27T01:40:40.478Z,1.47
2022-12-27T01:44:40.538Z,1.77
2022-12-27T01:48:40.433Z,1.6
2022-12-27T01:52:40.602Z,1.93
2022-12-27T01:56:39.728Z,1.5
2022-12-27T02:00:40.947Z,0.67
2022-12-27T02:04:40.520Z,1.7
2022-12-27T02:08:40.492Z,1.43
2022-12-27T02:12:40.721Z,1.5
2022-12-27T02:16:40.633Z,1.57
2022-12-27T02:20:40.741Z,1.4
2022-12-27T02:24:40.575Z,1.07
2022-12-27T02:28:40.642Z,0.93
2022-12-27T02:32:40.487Z,0.63
2022-12-27T02:36:40.713Z,1
2022-12-27T02:40:40.536Z,0.73
2022-12-27T02:44:40.677Z,1.2
2022-12-27T02:48:40.490Z,1.1
2022-12-27T02:52:40.826Z,1.07
2022-12-27T02:56:40.530Z,1.73
2022-12-27T03:00:40.547Z,1
2022-12-27T03:04:40.678Z,2.2
2022-12-27T03:08:41.207Z,1.4
2022-12-27T03:12:40.768Z,0.9
2022-12-27T03:16:40.603Z,1
2022-12-27T03:20:40.582Z,2.37
2022-12-27T03:24:41.191Z,1.6
2022-12-27T03:28:40.606Z,1.4
2022-12-27T03:32:40.615Z,1.1
2022-12-27T03:36:40.473Z,1.43
2022-12-27T03:40:40.301Z,1.6
2022-12-27T03:44:40.548Z,2.97
2022-12-27T03:48:40.317Z,1.4
2022-12-27T03:52:39.265Z,1.47
2022-12-27T03:56:40.487Z,1.17
2022-12-27T04:00:40.344Z,1.53
2022-12-27T04:04:40.831Z,2.13
2022-12-27T04:08:40.598Z,0.87
2022-12-27T04:12:40.496Z,1.43
2022-12-27T04:16:40.051Z,2.27
2022-12-27T04:20:41.142Z,1.7
2022-12-27T04:24:40.160Z,1.33
2022-12-27T04:28:41.027Z,1.73
2022-12-27T04:32:41.046Z,1.53
2022-12-27T04:36:40.606Z,2.67
2022-12-27T04:40:40.517Z,1.4
2022-12-27T04:44:40.533Z,1.3
2022-12-27T04:48:40.581Z,1.67
2022-12-27T04:52:40.557Z,1.33
2022-12-27T04:56:40.404Z,2.4
2022-12-27T05:00:40.615Z,1.27
2022-12-27T05:04:40.719Z,2.53
2022-12-27T05:08:40.694Z,0.97
2022-12-27T05:12:40.462Z,1.37
2022-12-27T05:16:40.365Z,2.43
2022-12-27T05:20:40.554Z,1.7
2022-12-27T05:24:40.562Z,1.67
2022-12-27T05:28:40.958Z,1.6
2022-12-27T05:32:40.909Z,2.3
2022-12-27T05:36:40.438Z,1.7
2022-12-27T05:40:40.318Z,0.9
2022-12-27T05:44:40.499Z,3.33
2022-12-27T05:48:40.590Z,1.7
2022-12-27T05:52:41.253Z,1.4
2022-12-27T05:56:41.285Z,1.2
2022-12-27T06:00:40.701Z,1.63
2022-12-27T06:04:40.758Z,1.73
2022-12-27T06:08:40.572Z,1.47
2022-12-27T06:12:40.233Z,0.9
2022-12-27T06:16:40.427Z,1.6
2022-12-27T06:20:40.536Z,1.13
2022-12-27T06:24:40.547Z,1.17
2022-12-27T06:28:40.508Z,1.97
2022-12-27T06:32:40.473Z,1.07
2022-12-27T06:36:40.656Z,1.5
2022-12-27T06:40:40.495Z,1.27
2022-12-27T06:44:40.555Z,1.5
2022-12-27T06:48:39.486Z,1.13
2022-12-27T06:52:40.470Z,1.77
2022-12-27T06:56:40.547Z,1
2022-12-27T07:00:40.270Z,1.57
2022-12-27T07:04:39.322Z,1.2
2022-12-27T07:08:40.463Z,1.3
2022-12-27T07:12:40.330Z,1.1
2022-12-27T07:16:41.038Z,0.7
2022-12-27T07:20:40.678Z,0.73
2022-12-27T07:24:40.532Z,1.1
2022-12-27T07:28:40.568Z,1
2022-12-27T07:32:40.542Z,1.37
2022-12-27T07:36:40.779Z,1.4
2022-12-27T07:40:40.720Z,0.77
2022-12-27T07:44:40.568Z,2.73
2022-12-27T07:48:40.542Z,2.1
2022-12-27T07:52:40.577Z,1.4
2022-12-27T07:56:40.641Z,0.8
2022-12-27T08:00:40.921Z,1.23
2022-12-27T08:04:41.016Z,2.03
2022-12-27T08:08:41.095Z,1.8
2022-12-27T08:12:40.402Z,0.87
2022-12-27T08:16:40.733Z,1.07
2022-12-27T08:20:40.344Z,1.87
2022-12-27T08:24:41.241Z,0.9
2022-12-27T08:28:40.092Z,0.9
2022-12-27T08:32:41.135Z,0.8
2022-12-27T08:36:56.713Z,1.23
2022-12-27T08:40:40.887Z,0.93
2022-12-27T08:44:40.555Z,1.43
2022-12-27T08:48:40.595Z,1.53
2022-12-27T08:52:40.576Z,1.3
2022-12-27T08:56:41.045Z,1.33
2022-12-27T09:00:40.248Z,0.93
2022-12-27T09:04:39.618Z,1.07
2022-12-27T09:08:40.897Z,1.2
2022-12-27T09:12:40.678Z,0.77
2022-12-27T09:16:40.529Z,1.6
2022-12-27T09:20:40.186Z,1.1
2022-12-27T09:24:41.228Z,0.73
2022-12-27T09:28:40.711Z,1.5
2022-12-27T09:32:40.269Z,1.6
2022-12-27T09:36:41.237Z,0.9
2022-12-27T09:40:40.331Z,1.4
2022-12-27T09:44:40.783Z,0.9
2022-12-27T09:48:40.448Z,1.3
2022-12-27T09:52:40.520Z,1.27
2022-12-27T09:57:17.815Z,1
2022-12-27T10:00:46.067Z,1.2
2022-12-27T10:05:18.057Z,1.03
2022-12-27T10:08:40.997Z,0.9
2022-12-27T10:12:40.488Z,0.8
2022-12-27T10:16:40.655Z,0.87
2022-12-27T10:20:40.646Z,1.23
2022-12-27T10:24:40.541Z,1.27
2022-12-27T10:28:40.436Z,1.2
2022-12-27T10:32:40.584Z,0.87
2022-12-27T10:36:40.284Z,1.07
2022-12-27T10:40:41.087Z,2.7
2022-12-27T10:44:40.463Z,1.7
2022-12-27T10:49:11.313Z,1
2022-12-27T10:52:40.432Z,0.6
2022-12-27T10:56:40.477Z,1.13
2022-12-27T11:00:40.441Z,0.53
2022-12-27T11:04:40.688Z,1.1
2022-12-27T11:08:40.567Z,0.8
2022-12-27T11:12:40.446Z,0.93
2022-12-27T11:16:40.475Z,1
2022-12-27T11:20:40.220Z,1.23
2022-12-27T11:24:40.509Z,1.17
2022-12-27T11:28:40.722Z,1.3
2022-12-27T11:32:40.734Z,2.53
2022-12-27T11:36:40.712Z,0.87
2022-12-27T11:40:40.464Z,1.77
2022-12-27T11:44:40.948Z,0.9
2022-12-27T11:48:40.375Z,1.27
2022-12-27T11:52:40.560Z,1.45
2022-12-27T11:56:40.421Z,0.77
2022-12-27T12:00:40.388Z,1
2022-12-27T12:04:40.900Z,1
2022-12-27T12:08:40.535Z,1.65
2022-12-27T12:12:40.594Z,1.08
2022-12-27T12:16:40.544Z,1.12
2022-12-27T12:20:45.656Z,0.95
2022-12-27T12:24:40.554Z,1
2022-12-27T12:28:58.300Z,1.17
2022-12-27T12:32:40.474Z,1.62
2022-12-27T12:36:40.335Z,1.02
2022-12-27T12:40:39.297Z,1.62
2022-12-27T12:44:41.850Z,1.05
2022-12-27T12:48:39.552Z,0.98
2022-12-27T12:52:40.609Z,1.23
2022-12-27T12:56:40.338Z,1.1
2022-12-27T13:00:41.185Z,1.2
2022-12-27T13:04:40.679Z,1.27
2022-12-27T13:08:40.675Z,1.4
2022-12-27T13:12:40.572Z,0.7
2022-12-27T13:16:40.669Z,1.17
2022-12-27T13:20:40.771Z,1.9
2022-12-27T13:24:40.507Z,1.1
2022-12-27T13:28:40.728Z,2.2
2022-12-27T13:32:40.544Z,1.1
2022-12-27T13:36:40.604Z,1.63
2022-12-27T13:40:40.513Z,1.3
2022-12-27T13:44:40.595Z,0.7
2022-12-27T13:48:39.783Z,1.3
2022-12-27T13:52:40.879Z,1.67
2022-12-27T13:56:53.880Z,1.05
2022-12-27T14:00:39.734Z,0.87
2022-12-27T14:04:40.827Z,1.4
2022-12-27T14:08:40.782Z,1.17
2022-12-27T14:12:41.039Z,1.13
2022-12-27T14:16:40.656Z,0.97
2022-12-27T14:20:40.589Z,1.37
2022-12-27T14:24:40.475Z,1.43
2022-12-27T14:28:41.171Z,0.87
2022-12-27T14:32:39.669Z,1.3
2022-12-27T14:36:40.580Z,1
2022-12-27T14:40:40.537Z,1.6
2022-12-27T14:44:40.484Z,0.63
2022-12-27T14:48:40.510Z,1.7
2022-12-27T14:52:41.244Z,1.37
2022-12-27T14:56:40.577Z,1.5
2022-12-27T15:00:40.416Z,1.63
2022-12-27T15:04:41.094Z,2
2022-12-27T15:08:40.598Z,1.23
2022-12-27T15:12:39.799Z,1.7
2022-12-27T15:16:40.607Z,1.17
2022-12-27T15:20:40.575Z,1.2
2022-12-27T15:24:40.566Z,1.3
2022-12-27T15:28:40.624Z,1.53
2022-12-27T15:32:40.724Z,1.73
2022-12-27T15:36:40.745Z,1.5
2022-12-27T15:40:40.650Z,1.7
2022-12-27T15:44:40.654Z,1.93
2022-12-27T15:48:40.466Z,1.83
2022-12-27T15:52:40.880Z,1.57
2022-12-27T15:56:40.372Z,1.23
2022-12-27T16:00:41.112Z,1.93
2022-12-27T16:04:41.035Z,1.87
2022-12-27T16:08:40.984Z,2.03
2022-12-27T16:12:40.598Z,1.8
2022-12-27T16:16:41.095Z,1.63
2022-12-27T16:20:40.553Z,1.93
2022-12-27T16:24:40.550Z,1.57
2022-12-27T16:28:40.457Z,1.73
2022-12-27T16:32:40.674Z,1.53
2022-12-27T16:36:40.462Z,1.73
2022-12-27T16:40:40.559Z,1.43
2022-12-27T16:44:40.466Z,1.4
2022-12-27T16:48:40.576Z,1.77
2022-12-27T16:52:40.701Z,1.43
2022-12-27T16:56:40.646Z,1.5
2022-12-27T17:00:40.783Z,2.07
2022-12-27T17:04:40.669Z,1.33
2022-12-27T17:08:40.527Z,1.4
2022-12-27T17:12:40.482Z,2.07
2022-12-27T17:16:39.921Z,1.9
2022-12-27T17:20:40.817Z,5.8
2022-12-27T17:24:40.504Z,1.63
2022-12-27T17:28:40.545Z,2
2022-12-27T17:32:40.974Z,1.77
2022-12-27T17:36:40.547Z,1.47
2022-12-27T17:40:40.497Z,1.43
2022-12-27T17:44:40.243Z,1.2
2022-12-27T17:48:39.403Z,3
2022-12-27T17:52:40.279Z,2.23
2022-12-27T17:56:40.712Z,2.37
2022-12-27T18:00:40.651Z,2.1
2022-12-27T18:04:40.565Z,2.33
2022-12-27T18:08:40.617Z,2.27
2022-12-27T18:12:40.476Z,2.1
2022-12-27T18:16:40.560Z,2.67
2022-12-27T18:20:40.520Z,2.4
2022-12-27T18:24:40.694Z,3.23
2022-12-27T18:28:40.511Z,2.33
2022-12-27T18:32:40.698Z,2.8
2022-12-27T18:36:40.584Z,2.6
2022-12-27T18:40:40.692Z,2.5
2022-12-27T18:44:40.758Z,3.17
2022-12-27T18:48:40.968Z,2.97
2022-12-27T18:52:40.897Z,3.23
2022-12-27T18:56:40.699Z,3.97
2022-12-27T19:00:40.922Z,3.7
2022-12-27T19:04:40.893Z,3.67
2022-12-27T19:08:40.353Z,3.3
2022-12-27T19:12:40.566Z,3.23
2022-12-27T19:16:40.564Z,3.5
2022-12-27T19:20:40.478Z,3.17
2022-12-27T19:24:40.646Z,3.17
2022-12-27T19:28:41.192Z,2.9
2022-12-27T19:32:40.492Z,2.77
2022-12-27T19:36:40.492Z,3.87
2022-12-27T19:40:40.466Z,4
2022-12-27T19:44:40.328Z,5.1
2022-12-27T19:48:41.066Z,4.4
2022-12-27T19:52:40.490Z,6.2
2022-12-27T19:56:40.571Z,4.97
2022-12-27T20:00:40.654Z,3.63
2022-12-27T20:04:40.612Z,3.8
2022-12-27T20:08:40.524Z,2.7
2022-12-27T20:12:40.653Z,3.8
2022-12-27T20:16:40.596Z,2.8
2022-12-27T20:20:40.535Z,3.5
2022-12-27T20:24:40.516Z,2.6
2022-12-27T20:28:40.489Z,4.07
2022-12-27T20:32:40.914Z,2.87
2022-12-27T20:36:40.619Z,2.57
2022-12-27T20:40:40.631Z,2.93
2022-12-27T20:44:40.820Z,2.37
2022-12-27T20:48:40.674Z,2.83
2022-12-27T20:52:40.471Z,2.2
2022-12-27T20:56:40.505Z,2.5
2022-12-27T21:00:40.480Z,2.43
2022-12-27T21:04:40.875Z,2.8
2022-12-27T21:08:46.681Z,2.9
2022-12-27T21:12:40.477Z,2.9
2022-12-27T21:16:40.598Z,3.37
2022-12-27T21:20:40.664Z,3.03
2022-12-27T21:24:40.693Z,2.77
2022-12-27T21:28:40.774Z,2.93
2022-12-27T21:32:40.515Z,2.83
2022-12-27T21:36:39.821Z,2.63
2022-12-27T21:40:40.799Z,2.3
2022-12-27T21:44:40.593Z,3.77
2022-12-27T21:48:40.325Z,2.93
2022-12-27T21:52:39.808Z,2.37
2022-12-27T21:56:40.486Z,2.13
2022-12-27T22:00:40.320Z,2.7
2022-12-27T22:04:40.494Z,3.2
2022-12-27T22:08:40.510Z,2.83
2022-12-27T22:12:40.572Z,2.5
2022-12-27T22:16:41.118Z,2.43
2022-12-27T22:20:46.771Z,2.83
2022-12-27T22:24:40.601Z,2.83
2022-12-27T22:28:40.555Z,2.27
2022-12-27T22:32:40.643Z,2.27
2022-12-27T22:36:40.508Z,2.87
2022-12-27T22:40:46.298Z,2.5
2022-12-27T22:44:40.559Z,2.5
2022-12-27T22:48:40.505Z,2.63
2022-12-27T22:52:40.475Z,1.9
2022-12-27T22:56:40.605Z,2.43
2022-12-27T23:00:40.236Z,3.43
2022-12-27T23:04:41.018Z,3.83
2022-12-27T23:08:40.493Z,1.87
2022-12-27T23:12:41.014Z,3.37
2022-12-27T23:16:40.603Z,2.1
2022-12-27T23:21:21.595Z,2.03
2022-12-27T23:24:40.476Z,2.27
2022-12-27T23:28:40.878Z,2.1
2022-12-27T23:32:40.603Z,3.1
2022-12-27T23:36:40.449Z,2
2022-12-27T23:40:40.631Z,2.47
2022-12-27T23:44:40.667Z,2.1
2022-12-27T23:48:40.585Z,2
2022-12-27T23:52:40.624Z,2.17
2022-12-27T23:56:40.834Z,2.27
